Terminal Aerodrome Forecast
Issued by NWS Wilmington, NC

Home | Current Version | Previous Version | Text Only | Print | Product List | Glossary On
Versions: 1 2 3 4 5 6 7 8 9 10 11 12 13 14 15 16 17 18 19 20
333
FTUS42 KILM 070549 CCA
TAFFLO
TAF COR
KFLO 070549Z 0706/0806 04010G17KT P6SM -RA SCT025 OVC040
     FM071000 02014G24KT 5SM -RA BR SCT010 OVC020
      TEMPO 0713/0717 2SM RA SCT007 OVC012
     FM071700 36017G28KT 4SM -RA BR SCT007 OVC015
     FM072200 34015G24KT P6SM SCT060 OVC100=

USA.gov is the U.S. government's official web portal to all federal, state and local government web resources and services.